sensor_id;sensor_type;location;lat;lon;timestamp;temperature;humidity
19945;DHT22;10134;50.952;6.930;2023-01-13T00:01:07;12.60;99.90
19945;DHT22;10134;50.952;6.930;2023-01-13T00:03:36;12.70;99.90
19945;DHT22;10134;50.952;6.930;2023-01-13T00:06:04;12.70;99.90
19945;DHT22;10134;50.952;6.930;2023-01-13T00:08:32;12.70;99.90
19945;DHT22;10134;50.952;6.930;2023-01-13T00:10:59;12.70;99.90
19945;DHT22;10134;50.952;6.930;2023-01-13T00:13:26;12.70;99.90
19945;DHT22;10134;50.952;6.930;2023-01-13T00:16:02;12.70;99.90
19945;DHT22;10134;50.952;6.930;2023-01-13T00:18:30;12.70;99.90
19945;DHT22;10134;50.952;6.930;2023-01-13T00:23:34;12.60;99.90
19945;DHT22;10134;50.952;6.930;2023-01-13T00:26:04;12.60;99.90
19945;DHT22;10134;50.952;6.930;2023-01-13T00:28:32;12.60;99.90
19945;DHT22;10134;50.952;6.930;2023-01-13T00:31:08;12.60;99.90
19945;DHT22;10134;50.952;6.930;2023-01-13T00:33:36;12.50;99.90
19945;DHT22;10134;50.952;6.930;2023-01-13T00:36:06;12.50;99.90
19945;DHT22;10134;50.952;6.930;2023-01-13T00:38:34;12.40;99.90
19945;DHT22;10134;50.952;6.930;2023-01-13T00:41:05;12.30;99.90
19945;DHT22;10134;50.952;6.930;2023-01-13T00:43:34;12.30;99.90
19945;DHT22;10134;50.952;6.930;2023-01-13T00:46:03;12.30;99.90
19945;DHT22;10134;50.952;6.930;2023-01-13T00:48:31;12.20;99.90
19945;DHT22;10134;50.952;6.930;2023-01-13T00:51:04;12.20;99.90
19945;DHT22;10134;50.952;6.930;2023-01-13T00:53:40;12.10;99.90
19945;DHT22;10134;50.952;6.930;2023-01-13T00:56:18;12.10;99.90
19945;DHT22;10134;50.952;6.930;2023-01-13T00:59:04;12.00;99.90
19945;DHT22;10134;50.952;6.930;2023-01-13T01:01:31;12.10;99.90
19945;DHT22;10134;50.952;6.930;2023-01-13T01:03:59;12.10;99.90
19945;DHT22;10134;50.952;6.930;2023-01-13T01:06:27;12.00;99.90
19945;DHT22;10134;50.952;6.930;2023-01-13T01:08:54;12.00;99.90
19945;DHT22;10134;50.952;6.930;2023-01-13T01:11:28;12.00;99.90
19945;DHT22;10134;50.952;6.930;2023-01-13T01:13:57;12.00;99.90
19945;DHT22;10134;50.952;6.930;2023-01-13T01:16:27;12.00;99.90
19945;DHT22;10134;50.952;6.930;2023-01-13T01:18:55;12.00;99.90
19945;DHT22;10134;50.952;6.930;2023-01-13T01:21:24;12.00;99.90
19945;DHT22;10134;50.952;6.930;2023-01-13T01:23:52;12.00;99.90
19945;DHT22;10134;50.952;6.930;2023-01-13T01:26:22;12.00;99.90
19945;DHT22;10134;50.952;6.930;2023-01-13T01:28:50;12.00;99.90
19945;DHT22;10134;50.952;6.930;2023-01-13T01:31:23;11.90;99.90
19945;DHT22;10134;50.952;6.930;2023-01-13T01:33:51;11.90;99.90
19945;DHT22;10134;50.952;6.930;2023-01-13T01:36:20;11.90;99.90
19945;DHT22;10134;50.952;6.930;2023-01-13T01:38:48;11.90;99.90
19945;DHT22;10134;50.952;6.930;2023-01-13T01:41:22;11.80;99.90
19945;DHT22;10134;50.952;6.930;2023-01-13T01:44:44;11.80;99.90
19945;DHT22;10134;50.952;6.930;2023-01-13T01:46:55;11.70;99.90
19945;DHT22;10134;50.952;6.930;2023-01-13T01:49:26;11.70;99.90
19945;DHT22;10134;50.952;6.930;2023-01-13T01:52:03;11.60;99.90
19945;DHT22;10134;50.952;6.930;2023-01-13T01:55:02;11.60;99.90
19945;DHT22;10134;50.952;6.930;2023-01-13T01:57:57;11.50;99.90
19945;DHT22;10134;50.952;6.930;2023-01-13T02:00:29;11.40;99.90
19945;DHT22;10134;50.952;6.930;2023-01-13T02:02:58;11.40;99.90
19945;DHT22;10134;50.952;6.930;2023-01-13T02:05:25;11.30;99.90
19945;DHT22;10134;50.952;6.930;2023-01-13T02:07:55;11.30;99.90
19945;DHT22;10134;50.952;6.930;2023-01-13T02:10:26;11.30;99.90
19945;DHT22;10134;50.952;6.930;2023-01-13T02:13:02;11.20;99.90
19945;DHT22;10134;50.952;6.930;2023-01-13T02:33:04;11.10;99.90
19945;DHT22;10134;50.952;6.930;2023-01-13T02:38:24;11.10;99.90
19945;DHT22;10134;50.952;6.930;2023-01-13T02:41:13;11.10;99.90
19945;DHT22;10134;50.952;6.930;2023-01-13T02:44:02;11.00;99.90
19945;DHT22;10134;50.952;6.930;2023-01-13T02:46:46;11.00;99.90
19945;DHT22;10134;50.952;6.930;2023-01-13T02:49:25;11.00;99.90
19945;DHT22;10134;50.952;6.930;2023-01-13T02:52:00;11.00;99.90
19945;DHT22;10134;50.952;6.930;2023-01-13T02:54:29;11.00;99.90
19945;DHT22;10134;50.952;6.930;2023-01-13T02:57:00;11.00;99.90
19945;DHT22;10134;50.952;6.930;2023-01-13T02:59:29;11.00;99.90
19945;DHT22;10134;50.952;6.930;2023-01-13T03:01:58;11.00;99.90
19945;DHT22;10134;50.952;6.930;2023-01-13T03:04:48;11.00;99.90
19945;DHT22;10134;50.952;6.930;2023-01-13T03:15:53;10.90;99.90
19945;DHT22;10134;50.952;6.930;2023-01-13T03:21:29;10.90;99.90
19945;DHT22;10134;50.952;6.930;2023-01-13T03:24:08;10.90;99.90
19945;DHT22;10134;50.952;6.930;2023-01-13T03:27:02;10.90;99.90
19945;DHT22;10134;50.952;6.930;2023-01-13T03:29:56;10.80;99.90
19945;DHT22;10134;50.952;6.930;2023-01-13T03:32:32;10.80;99.90
19945;DHT22;10134;50.952;6.930;2023-01-13T03:35:10;10.70;99.90
19945;DHT22;10134;50.952;6.930;2023-01-13T03:37:44;10.70;99.90
19945;DHT22;10134;50.952;6.930;2023-01-13T03:40:16;10.70;99.90
19945;DHT22;10134;50.952;6.930;2023-01-13T03:42:49;10.70;99.90
19945;DHT22;10134;50.952;6.930;2023-01-13T03:45:38;10.70;99.90
19945;DHT22;10134;50.952;6.930;2023-01-13T03:48:15;10.70;99.90
19945;DHT22;10134;50.952;6.930;2023-01-13T03:50:48;10.70;99.90
19945;DHT22;10134;50.952;6.930;2023-01-13T03:53:45;10.70;99.90
19945;DHT22;10134;50.952;6.930;2023-01-13T03:56:19;10.70;99.90
19945;DHT22;10134;50.952;6.930;2023-01-13T03:58:50;10.70;99.90
19945;DHT22;10134;50.952;6.930;2023-01-13T04:01:50;10.70;99.90
19945;DHT22;10134;50.952;6.930;2023-01-13T04:04:24;10.60;99.90
19945;DHT22;10134;50.952;6.930;2023-01-13T04:07:26;10.60;99.90
19945;DHT22;10134;50.952;6.930;2023-01-13T04:09:55;10.70;99.90
19945;DHT22;10134;50.952;6.930;2023-01-13T04:12:29;10.60;99.90
19945;DHT22;10134;50.952;6.930;2023-01-13T04:15:20;10.60;99.90
19945;DHT22;10134;50.952;6.930;2023-01-13T04:17:49;10.60;99.90
19945;DHT22;10134;50.952;6.930;2023-01-13T04:20:17;10.60;99.90
19945;DHT22;10134;50.952;6.930;2023-01-13T04:22:44;10.60;99.90
19945;DHT22;10134;50.952;6.930;2023-01-13T04:25:11;10.50;99.90
19945;DHT22;10134;50.952;6.930;2023-01-13T04:27:38;10.50;99.90
19945;DHT22;10134;50.952;6.930;2023-01-13T04:30:06;10.50;99.90
19945;DHT22;10134;50.952;6.930;2023-01-13T04:32:34;10.50;99.90
19945;DHT22;10134;50.952;6.930;2023-01-13T04:35:01;10.40;99.90
19945;DHT22;10134;50.952;6.930;2023-01-13T04:37:29;10.40;99.90
19945;DHT22;10134;50.952;6.930;2023-01-13T04:39:57;10.40;99.90
19945;DHT22;10134;50.952;6.930;2023-01-13T04:42:25;10.40;99.90
19945;DHT22;10134;50.952;6.930;2023-01-13T04:44:52;10.40;99.90
19945;DHT22;10134;50.952;6.930;2023-01-13T04:47:19;10.30;99.90
19945;DHT22;10134;50.952;6.930;2023-01-13T04:49:47;10.30;99.90
19945;DHT22;10134;50.952;6.930;2023-01-13T04:52:14;10.30;99.90
19945;DHT22;10134;50.952;6.930;2023-01-13T04:54:41;10.20;99.90
19945;DHT22;10134;50.952;6.930;2023-01-13T04:57:09;10.30;99.90
19945;DHT22;10134;50.952;6.930;2023-01-13T04:59:36;10.30;99.90
19945;DHT22;10134;50.952;6.930;2023-01-13T05:02:03;10.30;99.90
19945;DHT22;10134;50.952;6.930;2023-01-13T05:04:30;10.30;99.90
19945;DHT22;10134;50.952;6.930;2023-01-13T05:06:58;10.30;99.90
19945;DHT22;10134;50.952;6.930;2023-01-13T05:09:25;10.30;99.90
19945;DHT22;10134;50.952;6.930;2023-01-13T05:11:52;10.40;99.90
19945;DHT22;10134;50.952;6.930;2023-01-13T05:14:38;10.30;99.90
19945;DHT22;10134;50.952;6.930;2023-01-13T05:17:24;10.40;99.90
19945;DHT22;10134;50.952;6.930;2023-01-13T05:19:52;10.30;99.90
19945;DHT22;10134;50.952;6.930;2023-01-13T05:22:19;10.30;99.90
19945;DHT22;10134;50.952;6.930;2023-01-13T05:25:07;10.30;99.90
19945;DHT22;10134;50.952;6.930;2023-01-13T05:27:56;10.20;99.90
19945;DHT22;10134;50.952;6.930;2023-01-13T05:30:29;10.20;99.90
19945;DHT22;10134;50.952;6.930;2023-01-13T05:32:57;10.20;99.90
19945;DHT22;10134;50.952;6.930;2023-01-13T05:35:24;10.20;99.90
19945;DHT22;10134;50.952;6.930;2023-01-13T05:37:53;10.20;99.90
19945;DHT22;10134;50.952;6.930;2023-01-13T05:40:21;10.20;99.90
19945;DHT22;10134;50.952;6.930;2023-01-13T05:43:13;10.20;99.90
19945;DHT22;10134;50.952;6.930;2023-01-13T05:45:48;10.20;99.90
19945;DHT22;10134;50.952;6.930;2023-01-13T05:48:16;10.30;99.90
19945;DHT22;10134;50.952;6.930;2023-01-13T05:50:45;10.30;99.90
19945;DHT22;10134;50.952;6.930;2023-01-13T05:53:13;10.30;99.90
19945;DHT22;10134;50.952;6.930;2023-01-13T05:55:41;10.30;99.90
19945;DHT22;10134;50.952;6.930;2023-01-13T05:58:13;10.30;99.90
19945;DHT22;10134;50.952;6.930;2023-01-13T06:00:41;10.30;99.90
19945;DHT22;10134;50.952;6.930;2023-01-13T06:03:09;10.30;99.90
19945;DHT22;10134;50.952;6.930;2023-01-13T06:05:37;10.30;99.90
19945;DHT22;10134;50.952;6.930;2023-01-13T06:08:06;10.20;99.90
19945;DHT22;10134;50.952;6.930;2023-01-13T06:10:34;10.20;99.90
19945;DHT22;10134;50.952;6.930;2023-01-13T06:13:03;10.20;99.90
19945;DHT22;10134;50.952;6.930;2023-01-13T06:15:31;10.20;99.90
19945;DHT22;10134;50.952;6.930;2023-01-13T06:18:01;10.30;99.90
19945;DHT22;10134;50.952;6.930;2023-01-13T06:20:28;10.30;99.90
19945;DHT22;10134;50.952;6.930;2023-01-13T06:22:57;10.30;99.90
19945;DHT22;10134;50.952;6.930;2023-01-13T06:28:26;10.30;99.90
19945;DHT22;10134;50.952;6.930;2023-01-13T06:30:58;10.30;99.90
19945;DHT22;10134;50.952;6.930;2023-01-13T06:33:34;10.30;99.90
19945;DHT22;10134;50.952;6.930;2023-01-13T06:36:06;10.30;99.90
19945;DHT22;10134;50.952;6.930;2023-01-13T06:38:36;10.30;99.90
19945;DHT22;10134;50.952;6.930;2023-01-13T06:41:06;10.30;99.90
19945;DHT22;10134;50.952;6.930;2023-01-13T06:43:34;10.30;99.90
19945;DHT22;10134;50.952;6.930;2023-01-13T06:46:02;10.30;99.90
19945;DHT22;10134;50.952;6.930;2023-01-13T06:48:31;10.30;99.90
19945;DHT22;10134;50.952;6.930;2023-01-13T06:51:02;10.30;99.90
19945;DHT22;10134;50.952;6.930;2023-01-13T06:53:30;10.30;99.90
19945;DHT22;10134;50.952;6.930;2023-01-13T06:55:57;10.30;99.90
19945;DHT22;10134;50.952;6.930;2023-01-13T06:58:25;10.30;99.90
19945;DHT22;10134;50.952;6.930;2023-01-13T07:00:52;10.20;99.90
19945;DHT22;10134;50.952;6.930;2023-01-13T07:03:21;10.30;99.90
19945;DHT22;10134;50.952;6.930;2023-01-13T07:05:53;10.30;99.90
19945;DHT22;10134;50.952;6.930;2023-01-13T07:08:21;10.20;99.90
19945;DHT22;10134;50.952;6.930;2023-01-13T07:10:49;10.20;99.90
19945;DHT22;10134;50.952;6.930;2023-01-13T07:13:17;10.20;99.90
19945;DHT22;10134;50.952;6.930;2023-01-13T07:16:04;10.20;99.90
19945;DHT22;10134;50.952;6.930;2023-01-13T07:18:33;10.20;99.90
19945;DHT22;10134;50.952;6.930;2023-01-13T07:21:05;10.20;99.90
19945;DHT22;10134;50.952;6.930;2023-01-13T07:23:38;10.20;99.90
19945;DHT22;10134;50.952;6.930;2023-01-13T07:26:07;10.20;99.90
19945;DHT22;10134;50.952;6.930;2023-01-13T07:28:36;10.20;99.90
19945;DHT22;10134;50.952;6.930;2023-01-13T07:31:04;10.10;99.90
19945;DHT22;10134;50.952;6.930;2023-01-13T07:33:32;10.10;99.90
19945;DHT22;10134;50.952;6.930;2023-01-13T07:36:01;10.10;99.90
19945;DHT22;10134;50.952;6.930;2023-01-13T07:38:30;10.10;99.90
19945;DHT22;10134;50.952;6.930;2023-01-13T07:40:58;10.10;99.90
19945;DHT22;10134;50.952;6.930;2023-01-13T07:43:44;10.10;99.90
19945;DHT22;10134;50.952;6.930;2023-01-13T07:46:12;10.10;99.90
19945;DHT22;10134;50.952;6.930;2023-01-13T07:48:39;10.00;99.90
19945;DHT22;10134;50.952;6.930;2023-01-13T07:51:08;10.00;99.90
19945;DHT22;10134;50.952;6.930;2023-01-13T07:53:37;10.00;99.90
19945;DHT22;10134;50.952;6.930;2023-01-13T07:56:07;9.90;99.90
19945;DHT22;10134;50.952;6.930;2023-01-13T07:58:35;9.90;99.90
19945;DHT22;10134;50.952;6.930;2023-01-13T08:01:12;9.90;99.90
19945;DHT22;10134;50.952;6.930;2023-01-13T08:03:40;9.90;99.90
19945;DHT22;10134;50.952;6.930;2023-01-13T08:06:09;9.80;99.90
19945;DHT22;10134;50.952;6.930;2023-01-13T08:08:37;9.80;99.90
19945;DHT22;10134;50.952;6.930;2023-01-13T08:11:06;9.80;99.90
19945;DHT22;10134;50.952;6.930;2023-01-13T08:13:34;9.80;99.90
19945;DHT22;10134;50.952;6.930;2023-01-13T08:16:09;9.80;99.90
19945;DHT22;10134;50.952;6.930;2023-01-13T08:18:37;9.80;99.90
19945;DHT22;10134;50.952;6.930;2023-01-13T08:21:07;9.80;99.90
19945;DHT22;10134;50.952;6.930;2023-01-13T08:23:35;9.80;99.90
19945;DHT22;10134;50.952;6.930;2023-01-13T08:26:05;9.80;99.90
19945;DHT22;10134;50.952;6.930;2023-01-13T08:28:33;9.80;99.90
19945;DHT22;10134;50.952;6.930;2023-01-13T08:31:02;9.80;99.90
19945;DHT22;10134;50.952;6.930;2023-01-13T08:33:30;9.80;99.90
19945;DHT22;10134;50.952;6.930;2023-01-13T08:35:58;9.80;99.90
19945;DHT22;10134;50.952;6.930;2023-01-13T08:38:28;9.80;99.90
19945;DHT22;10134;50.952;6.930;2023-01-13T08:40:55;9.80;99.90
19945;DHT22;10134;50.952;6.930;2023-01-13T08:43:23;9.80;99.90
19945;DHT22;10134;50.952;6.930;2023-01-13T08:45:56;9.90;99.90
19945;DHT22;10134;50.952;6.930;2023-01-13T08:48:24;9.90;99.90
19945;DHT22;10134;50.952;6.930;2023-01-13T08:50:51;9.90;99.90
19945;DHT22;10134;50.952;6.930;2023-01-13T08:53:19;9.90;99.90
19945;DHT22;10134;50.952;6.930;2023-01-13T08:55:47;10.00;99.90
19945;DHT22;10134;50.952;6.930;2023-01-13T08:58:14;10.00;99.90
19945;DHT22;10134;50.952;6.930;2023-01-13T09:00:42;10.00;99.90
19945;DHT22;10134;50.952;6.930;2023-01-13T09:03:10;10.00;99.90
19945;DHT22;10134;50.952;6.930;2023-01-13T09:05:37;10.10;99.90
19945;DHT22;10134;50.952;6.930;2023-01-13T09:08:05;10.10;99.90
19945;DHT22;10134;50.952;6.930;2023-01-13T09:10:32;10.10;99.90
19945;DHT22;10134;50.952;6.930;2023-01-13T09:12:59;10.10;99.90
19945;DHT22;10134;50.952;6.930;2023-01-13T09:15:40;10.10;99.90
19945;DHT22;10134;50.952;6.930;2023-01-13T09:18:08;10.10;99.90
19945;DHT22;10134;50.952;6.930;2023-01-13T09:20:36;10.10;99.90
19945;DHT22;10134;50.952;6.930;2023-01-13T09:23:04;10.10;99.90
19945;DHT22;10134;50.952;6.930;2023-01-13T09:25:36;10.20;99.90
19945;DHT22;10134;50.952;6.930;2023-01-13T09:28:03;10.20;99.90
19945;DHT22;10134;50.952;6.930;2023-01-13T09:30:31;10.30;99.90
19945;DHT22;10134;50.952;6.930;2023-01-13T09:32:58;10.30;99.90
19945;DHT22;10134;50.952;6.930;2023-01-13T09:35:44;10.30;99.90
19945;DHT22;10134;50.952;6.930;2023-01-13T09:38:12;10.30;99.90
19945;DHT22;10134;50.952;6.930;2023-01-13T09:40:39;10.30;99.90
19945;DHT22;10134;50.952;6.930;2023-01-13T09:43:24;10.30;99.90
19945;DHT22;10134;50.952;6.930;2023-01-13T09:46:42;10.30;99.90
19945;DHT22;10134;50.952;6.930;2023-01-13T09:49:22;10.30;99.90
19945;DHT22;10134;50.952;6.930;2023-01-13T09:51:57;10.40;99.90
19945;DHT22;10134;50.952;6.930;2023-01-13T09:54:42;10.40;99.90
19945;DHT22;10134;50.952;6.930;2023-01-13T09:57:11;10.50;99.90
19945;DHT22;10134;50.952;6.930;2023-01-13T09:59:39;10.50;99.90
19945;DHT22;10134;50.952;6.930;2023-01-13T10:05:15;10.60;99.90
19945;DHT22;10134;50.952;6.930;2023-01-13T10:07:54;10.70;99.90
19945;DHT22;10134;50.952;6.930;2023-01-13T10:10:33;10.70;99.90
19945;DHT22;10134;50.952;6.930;2023-01-13T10:13:18;10.70;99.90
19945;DHT22;10134;50.952;6.930;2023-01-13T10:16:17;10.80;99.90
19945;DHT22;10134;50.952;6.930;2023-01-13T10:24:52;10.90;99.90
19945;DHT22;10134;50.952;6.930;2023-01-13T10:27:28;10.90;99.90
19945;DHT22;10134;50.952;6.930;2023-01-13T10:29:57;10.90;99.90
19945;DHT22;10134;50.952;6.930;2023-01-13T10:32:25;11.00;99.90
19945;DHT22;10134;50.952;6.930;2023-01-13T10:34:52;11.00;99.90
19945;DHT22;10134;50.952;6.930;2023-01-13T10:37:25;11.00;99.90
19945;DHT22;10134;50.952;6.930;2023-01-13T10:39:55;11.00;99.90
19945;DHT22;10134;50.952;6.930;2023-01-13T10:42:23;11.00;99.90
19945;DHT22;10134;50.952;6.930;2023-01-13T10:44:54;11.00;99.90
19945;DHT22;10134;50.952;6.930;2023-01-13T10:47:42;11.10;99.90
19945;DHT22;10134;50.952;6.930;2023-01-13T10:53:01;11.20;99.90
19945;DHT22;10134;50.952;6.930;2023-01-13T10:55:31;11.20;99.90
19945;DHT22;10134;50.952;6.930;2023-01-13T10:58:18;11.20;99.90
19945;DHT22;10134;50.952;6.930;2023-01-13T11:00:48;11.20;99.90
19945;DHT22;10134;50.952;6.930;2023-01-13T11:03:20;11.20;99.90
19945;DHT22;10134;50.952;6.930;2023-01-13T11:05:57;11.20;99.90
19945;DHT22;10134;50.952;6.930;2023-01-13T11:08:39;11.20;99.90
19945;DHT22;10134;50.952;6.930;2023-01-13T11:11:35;11.30;99.90
19945;DHT22;10134;50.952;6.930;2023-01-13T11:14:36;11.30;99.90
19945;DHT22;10134;50.952;6.930;2023-01-13T11:22:44;11.30;99.90
19945;DHT22;10134;50.952;6.930;2023-01-13T11:25:37;11.30;99.90
19945;DHT22;10134;50.952;6.930;2023-01-13T11:36:45;11.40;99.90
19945;DHT22;10134;50.952;6.930;2023-01-13T11:39:30;11.50;99.90
19945;DHT22;10134;50.952;6.930;2023-01-13T11:45:04;11.50;99.90
19945;DHT22;10134;50.952;6.930;2023-01-13T11:47:34;11.60;99.90
19945;DHT22;10134;50.952;6.930;2023-01-13T11:50:05;11.50;99.90
19945;DHT22;10134;50.952;6.930;2023-01-13T11:53:22;11.50;99.90
19945;DHT22;10134;50.952;6.930;2023-01-13T12:01:42;11.60;99.90
19945;DHT22;10134;50.952;6.930;2023-01-13T12:04:40;11.60;99.90
19945;DHT22;10134;50.952;6.930;2023-01-13T12:15:27;11.60;99.40
19945;DHT22;10134;50.952;6.930;2023-01-13T12:23:20;11.60;99.00
19945;DHT22;10134;50.952;6.930;2023-01-13T12:25:55;11.60;99.00
19945;DHT22;10134;50.952;6.930;2023-01-13T12:28:36;11.70;99.20
19945;DHT22;10134;50.952;6.930;2023-01-13T12:31:07;11.70;99.20
19945;DHT22;10134;50.952;6.930;2023-01-13T12:42:16;11.70;99.70
19945;DHT22;10134;50.952;6.930;2023-01-13T12:47:42;11.70;99.90
19945;DHT22;10134;50.952;6.930;2023-01-13T12:53:00;11.70;99.90
19945;DHT22;10134;50.952;6.930;2023-01-13T12:55:52;11.70;99.90
19945;DHT22;10134;50.952;6.930;2023-01-13T12:58:27;11.60;99.90
19945;DHT22;10134;50.952;6.930;2023-01-13T13:01:11;11.60;99.90
19945;DHT22;10134;50.952;6.930;2023-01-13T13:03:39;11.60;99.90
19945;DHT22;10134;50.952;6.930;2023-01-13T13:06:18;11.60;99.90
19945;DHT22;10134;50.952;6.930;2023-01-13T13:08:51;11.50;99.90
19945;DHT22;10134;50.952;6.930;2023-01-13T13:11:43;11.50;99.90
19945;DHT22;10134;50.952;6.930;2023-01-13T13:19:48;11.30;99.90
19945;DHT22;10134;50.952;6.930;2023-01-13T13:22:35;11.10;99.90
19945;DHT22;10134;50.952;6.930;2023-01-13T13:35:56;10.80;99.90
19945;DHT22;10134;50.952;6.930;2023-01-13T13:41:49;10.70;99.90
19945;DHT22;10134;50.952;6.930;2023-01-13T13:44:47;10.60;99.90
19945;DHT22;10134;50.952;6.930;2023-01-13T13:47:38;10.60;99.90
19945;DHT22;10134;50.952;6.930;2023-01-13T13:50:11;10.50;99.90
19945;DHT22;10134;50.952;6.930;2023-01-13T13:52:50;10.40;99.90
19945;DHT22;10134;50.952;6.930;2023-01-13T13:55:27;10.40;99.90
19945;DHT22;10134;50.952;6.930;2023-01-13T13:57:56;10.40;99.90
19945;DHT22;10134;50.952;6.930;2023-01-13T14:00:31;10.30;99.90
19945;DHT22;10134;50.952;6.930;2023-01-13T14:03:03;10.30;99.90
19945;DHT22;10134;50.952;6.930;2023-01-13T14:05:33;10.30;99.90
19945;DHT22;10134;50.952;6.930;2023-01-13T14:08:05;10.30;99.90
19945;DHT22;10134;50.952;6.930;2023-01-13T14:10:36;10.30;99.90
19945;DHT22;10134;50.952;6.930;2023-01-13T14:13:25;10.20;99.90
19945;DHT22;10134;50.952;6.930;2023-01-13T14:15:57;10.20;99.90
19945;DHT22;10134;50.952;6.930;2023-01-13T14:18:26;10.20;99.90
19945;DHT22;10134;50.952;6.930;2023-01-13T14:21:04;10.20;99.90
19945;DHT22;10134;50.952;6.930;2023-01-13T14:23:53;10.30;99.90
19945;DHT22;10134;50.952;6.930;2023-01-13T14:26:29;10.30;99.90
19945;DHT22;10134;50.952;6.930;2023-01-13T14:28:59;10.30;99.90
19945;DHT22;10134;50.952;6.930;2023-01-13T14:31:28;10.40;99.90
19945;DHT22;10134;50.952;6.930;2023-01-13T14:33:58;10.40;99.90
19945;DHT22;10134;50.952;6.930;2023-01-13T14:36:34;10.40;99.90
19945;DHT22;10134;50.952;6.930;2023-01-13T14:41:36;10.50;99.90
19945;DHT22;10134;50.952;6.930;2023-01-13T14:46:44;10.50;99.90
19945;DHT22;10134;50.952;6.930;2023-01-13T14:49:33;10.50;99.90
19945;DHT22;10134;50.952;6.930;2023-01-13T14:52:11;10.50;99.90
19945;DHT22;10134;50.952;6.930;2023-01-13T15:08:17;10.50;99.90
19945;DHT22;10134;50.952;6.930;2023-01-13T15:10:55;10.50;99.90
19945;DHT22;10134;50.952;6.930;2023-01-13T15:13:28;10.40;99.90
19945;DHT22;10134;50.952;6.930;2023-01-13T15:16:01;10.40;99.90
19945;DHT22;10134;50.952;6.930;2023-01-13T15:18:29;10.40;99.90
19945;DHT22;10134;50.952;6.930;2023-01-13T15:20:56;10.30;99.90
19945;DHT22;10134;50.952;6.930;2023-01-13T15:23:23;10.40;99.90
19945;DHT22;10134;50.952;6.930;2023-01-13T15:25:51;10.40;99.90
19945;DHT22;10134;50.952;6.930;2023-01-13T15:28:24;10.30;99.90
19945;DHT22;10134;50.952;6.930;2023-01-13T15:30:53;10.40;99.90
19945;DHT22;10134;50.952;6.930;2023-01-13T15:33:21;10.40;99.90
19945;DHT22;10134;50.952;6.930;2023-01-13T15:35:51;10.40;99.90
19945;DHT22;10134;50.952;6.930;2023-01-13T15:38:20;10.30;99.90
19945;DHT22;10134;50.952;6.930;2023-01-13T15:40:49;10.30;99.90
19945;DHT22;10134;50.952;6.930;2023-01-13T15:43:20;10.30;99.90
19945;DHT22;10134;50.952;6.930;2023-01-13T15:46:14;10.30;99.90
19945;DHT22;10134;50.952;6.930;2023-01-13T15:49:25;10.30;99.90
19945;DHT22;10134;50.952;6.930;2023-01-13T15:51:53;10.30;99.90
19945;DHT22;10134;50.952;6.930;2023-01-13T15:54:21;10.30;99.90
19945;DHT22;10134;50.952;6.930;2023-01-13T15:56:50;10.30;99.90
19945;DHT22;10134;50.952;6.930;2023-01-13T15:59:21;10.20;99.90
19945;DHT22;10134;50.952;6.930;2023-01-13T16:01:49;10.30;99.90
19945;DHT22;10134;50.952;6.930;2023-01-13T16:04:16;10.20;99.90
19945;DHT22;10134;50.952;6.930;2023-01-13T16:06:44;10.20;99.90
19945;DHT22;10134;50.952;6.930;2023-01-13T16:09:12;10.30;99.90
19945;DHT22;10134;50.952;6.930;2023-01-13T16:11:40;10.20;99.90
19945;DHT22;10134;50.952;6.930;2023-01-13T16:14:07;10.20;99.90
19945;DHT22;10134;50.952;6.930;2023-01-13T16:16:35;10.30;99.90
19945;DHT22;10134;50.952;6.930;2023-01-13T16:19:02;10.30;99.90
19945;DHT22;10134;50.952;6.930;2023-01-13T16:21:30;10.20;99.90
19945;DHT22;10134;50.952;6.930;2023-01-13T16:23:57;10.20;99.90
19945;DHT22;10134;50.952;6.930;2023-01-13T16:26:26;10.30;99.90
19945;DHT22;10134;50.952;6.930;2023-01-13T16:28:56;10.20;99.90
19945;DHT22;10134;50.952;6.930;2023-01-13T16:31:29;10.20;99.90
19945;DHT22;10134;50.952;6.930;2023-01-13T16:34:00;10.30;99.90
19945;DHT22;10134;50.952;6.930;2023-01-13T16:36:33;10.30;99.90
19945;DHT22;10134;50.952;6.930;2023-01-13T16:39:01;10.30;99.90
19945;DHT22;10134;50.952;6.930;2023-01-13T16:41:28;10.30;99.90
19945;DHT22;10134;50.952;6.930;2023-01-13T16:43:55;10.30;99.90
19945;DHT22;10134;50.952;6.930;2023-01-13T16:46:25;10.30;99.90
19945;DHT22;10134;50.952;6.930;2023-01-13T16:48:55;10.30;99.90
19945;DHT22;10134;50.952;6.930;2023-01-13T16:51:23;10.30;99.90
19945;DHT22;10134;50.952;6.930;2023-01-13T16:53:50;10.30;99.90
19945;DHT22;10134;50.952;6.930;2023-01-13T16:56:26;10.30;99.90
19945;DHT22;10134;50.952;6.930;2023-01-13T16:58:57;10.30;99.90
19945;DHT22;10134;50.952;6.930;2023-01-13T17:01:27;10.30;99.90
19945;DHT22;10134;50.952;6.930;2023-01-13T17:03:55;10.30;99.90
19945;DHT22;10134;50.952;6.930;2023-01-13T17:06:36;10.20;99.90
19945;DHT22;10134;50.952;6.930;2023-01-13T17:09:07;10.20;99.90
19945;DHT22;10134;50.952;6.930;2023-01-13T17:11:36;10.20;99.90
19945;DHT22;10134;50.952;6.930;2023-01-13T17:14:03;10.20;99.90
19945;DHT22;10134;50.952;6.930;2023-01-13T17:16:46;10.20;99.90
19945;DHT22;10134;50.952;6.930;2023-01-13T17:19:13;10.20;99.90
19945;DHT22;10134;50.952;6.930;2023-01-13T17:21:41;10.20;99.90
19945;DHT22;10134;50.952;6.930;2023-01-13T17:24:09;10.20;99.90
19945;DHT22;10134;50.952;6.930;2023-01-13T17:26:43;10.20;99.90
19945;DHT22;10134;50.952;6.930;2023-01-13T17:31:42;10.20;99.90
19945;DHT22;10134;50.952;6.930;2023-01-13T17:34:10;10.20;99.90
19945;DHT22;10134;50.952;6.930;2023-01-13T17:36:38;10.20;99.90
19945;DHT22;10134;50.952;6.930;2023-01-13T17:39:05;10.20;99.90
19945;DHT22;10134;50.952;6.930;2023-01-13T17:41:33;10.20;99.90
19945;DHT22;10134;50.952;6.930;2023-01-13T17:44:00;10.10;99.90
19945;DHT22;10134;50.952;6.930;2023-01-13T17:46:27;10.10;99.90
19945;DHT22;10134;50.952;6.930;2023-01-13T17:48:55;10.10;99.90
19945;DHT22;10134;50.952;6.930;2023-01-13T17:51:22;10.20;99.90
19945;DHT22;10134;50.952;6.930;2023-01-13T17:53:52;10.10;99.90
19945;DHT22;10134;50.952;6.930;2023-01-13T17:56:19;10.20;99.90
19945;DHT22;10134;50.952;6.930;2023-01-13T17:58:46;10.20;99.90
19945;DHT22;10134;50.952;6.930;2023-01-13T18:01:17;10.20;99.90
19945;DHT22;10134;50.952;6.930;2023-01-13T18:03:45;10.20;99.90
19945;DHT22;10134;50.952;6.930;2023-01-13T18:06:18;10.20;99.90
19945;DHT22;10134;50.952;6.930;2023-01-13T18:08:47;10.20;99.90
19945;DHT22;10134;50.952;6.930;2023-01-13T18:11:16;10.20;99.90
19945;DHT22;10134;50.952;6.930;2023-01-13T18:13:48;10.20;99.90
19945;DHT22;10134;50.952;6.930;2023-01-13T18:16:17;10.30;99.90
19945;DHT22;10134;50.952;6.930;2023-01-13T18:18:46;10.20;99.90
19945;DHT22;10134;50.952;6.930;2023-01-13T18:21:19;10.20;99.90
19945;DHT22;10134;50.952;6.930;2023-01-13T18:24:09;10.20;99.90
19945;DHT22;10134;50.952;6.930;2023-01-13T18:26:55;10.20;99.90
19945;DHT22;10134;50.952;6.930;2023-01-13T18:29:41;10.20;99.90